Time;durP1;ratioP1;P1;durP2;ratioP2;P2;SDS_P1;SDS_P2;PMS_P1;PMS_P2;Temp;Humidity;BMP_temperature;BMP_pressure;BME280_temperature;BME280_humidity;BME280_pressure;Samples;Min_cycle;Max_cycle;Signal;HPM_P1;HPM_P2
2021/10/08 00:02:18;;;;;;;;;0.00;0.00;;;;;13.83;62.47;102410.94;5062003;28;45378;-76
2021/10/08 00:04:46;;;;;;;;;0.50;0.00;;;;;13.81;62.67;102408.28;5061128;28;45351;-77
2021/10/08 00:07:11;;;;;;;;;0.00;0.00;;;;;13.66;62.13;102373.94;5062333;28;45442;-77
2021/10/08 00:09:38;;;;;;;;;0.00;0.00;;;;;14.03;62.44;102449.78;5061486;28;46353;-76
2021/10/08 00:12:09;;;;;;;;;0.00;0.00;;;;;13.39;62.68;102349.75;5069175;27;45369;-76
2021/10/08 00:14:35;;;;;;;;;2.00;0.00;;;;;13.92;62.64;102445.19;5041684;28;45374;-77
2021/10/08 00:17:00;;;;;;;;;0.00;0.00;;;;;13.90;62.60;102453.81;5043137;28;45621;-76
2021/10/08 00:19:26;;;;;;;;;0.00;0.00;;;;;13.54;62.78;102387.63;5041220;28;46507;-76
2021/10/08 00:21:52;;;;;;;;;0.00;0.00;;;;;13.75;62.98;102431.69;5043106;28;45319;-79
2021/10/08 00:24:18;;;;;;;;;2.00;0.50;;;;;13.50;62.91;102401.47;5041776;28;45327;-76
2021/10/08 00:26:44;;;;;;;;;1.00;1.00;;;;;13.65;63.14;102432.34;5043301;28;45484;-75
2021/10/08 00:29:11;;;;;;;;;0.00;0.00;;;;;13.27;63.02;102373.91;5036239;28;45864;-76
2021/10/08 00:31:37;;;;;;;;;0.00;0.00;;;;;13.39;63.24;102398.59;5040951;28;45502;-78
2021/10/08 00:34:03;;;;;;;;;0.00;0.00;;;;;13.57;63.07;102428.66;5041166;28;45339;-76
2021/10/08 00:36:28;;;;;;;;;0.00;0.00;;;;;13.39;63.17;102409.06;5041639;28;45322;-76
2021/10/08 00:38:54;;;;;;;;;0.00;0.00;;;;;13.61;63.47;102457.56;5057831;28;47663;-76
2021/10/08 00:41:21;;;;;;;;;0.00;0.00;;;;;13.67;63.38;102456.81;5042532;28;45276;-76
2021/10/08 00:43:47;;;;;;;;;0.00;0.00;;;;;13.47;63.59;102424.94;5041392;28;45418;-76
2021/10/08 00:46:13;;;;;;;;;0.00;0.00;;;;;13.27;63.47;102389.63;5042574;28;45583;-76
2021/10/08 00:48:40;;;;;;;;;0.00;0.00;;;;;13.67;63.69;102459.44;5040612;28;45549;-77
2021/10/08 00:51:05;;;;;;;;;0.00;0.00;;;;;13.57;63.49;102450.50;5042194;28;45451;-76
2021/10/08 00:53:30;;;;;;;;;0.00;0.00;;;;;13.54;64.07;102447.81;5042414;28;45682;-76
2021/10/08 00:55:56;;;;;;;;;0.00;0.00;;;;;13.52;63.46;102442.53;5048202;28;45370;-76
2021/10/08 00:58:22;;;;;;;;;0.75;0.75;;;;;13.60;63.86;102460.16;5062430;28;46485;-76
2021/10/08 01:00:50;;;;;;;;;0.00;0.00;;;;;13.63;63.85;102460.22;5062555;28;45438;-77
2021/10/08 01:03:18;;;;;;;;;1.00;0.00;;;;;13.42;63.84;102440.50;5060471;28;45332;-77
2021/10/08 01:05:44;;;;;;;;;0.00;0.00;;;;;13.56;63.87;102469.63;5060899;28;45492;-76
2021/10/08 01:08:10;;;;;;;;;0.00;0.00;;;;;13.51;64.47;102463.44;5060920;28;47111;-77
2021/10/08 01:10:41;;;;;;;;;0.00;0.00;;;;;13.33;64.30;102438.56;5062337;28;45439;-76
2021/10/08 01:13:08;;;;;;;;;0.00;0.00;;;;;13.16;64.36;102423.34;5060690;28;45308;-76
2021/10/08 01:15:33;;;;;;;;;1.00;0.00;;;;;13.20;64.74;102433.88;5061150;28;45413;-76
2021/10/08 01:18:00;;;;;;;;;0.00;0.00;;;;;13.13;64.59;102438.94;5061557;28;45461;-76
2021/10/08 01:20:26;;;;;;;;;0.00;0.00;;;;;13.25;65.23;102455.78;5060971;28;45382;-76
2021/10/08 01:22:58;;;;;;;;;0.00;0.00;;;;;13.25;64.71;102461.91;5062305;28;45448;-76
2021/10/08 01:25:26;;;;;;;;;2.25;2.25;;;;;13.11;65.02;102429.28;5062406;28;45336;-76
2021/10/08 01:27:51;;;;;;;;;0.00;0.00;;;;;13.24;64.97;102462.75;5065997;28;48982;-76
2021/10/08 01:30:16;;;;;;;;;0.00;0.00;;;;;12.95;65.22;102409.72;5082480;27;45413;-76
2021/10/08 01:32:42;;;;;;;;;0.00;0.00;;;;;13.06;65.15;102439.63;5080928;28;45481;-76
2021/10/08 01:35:08;;;;;;;;;0.00;0.00;;;;;13.12;64.94;102454.59;5082714;27;45295;-77
2021/10/08 01:37:34;;;;;;;;;0.00;0.00;;;;;13.02;65.09;102429.94;5082341;27;45703;-76
2021/10/08 01:40:02;;;;;;;;;0.00;0.00;;;;;12.91;64.88;102416.59;5082028;28;45804;-77
2021/10/08 01:42:27;;;;;;;;;1.00;0.75;;;;;13.05;65.26;102441.34;5082497;27;45651;-77
2021/10/08 01:44:53;;;;;;;;;0.00;0.00;;;;;12.95;65.63;102433.25;5081224;27;45545;-77
2021/10/08 01:47:18;;;;;;;;;0.00;0.00;;;;;13.01;65.19;102441.22;5080956;27;46881;-77
2021/10/08 01:49:43;;;;;;;;;0.75;0.75;;;;;12.87;65.45;102423.50;5080671;28;45440;-77
2021/10/08 01:52:09;;;;;;;;;0.00;0.00;;;;;13.05;65.51;102464.88;5082286;27;45380;-77
2021/10/08 01:54:34;;;;;;;;;0.25;0.25;;;;;12.98;65.54;102446.38;5081158;28;45527;-77
2021/10/08 01:57:00;;;;;;;;;2.00;1.00;;;;;13.05;65.44;102458.78;5080511;28;46036;-77
2021/10/08 01:59:25;;;;;;;;;0.00;0.00;;;;;13.01;65.65;102454.31;5081967;27;45397;-77
2021/10/08 02:01:51;;;;;;;;;0.75;0.00;;;;;13.09;65.64;102468.47;5059908;27;45375;-77
2021/10/08 02:04:16;;;;;;;;;0.00;0.00;;;;;12.72;65.97;102405.66;5060464;28;45355;-76
2021/10/08 02:06:42;;;;;;;;;1.00;0.00;;;;;13.03;65.94;102450.00;5060050;28;47198;-76
2021/10/08 02:09:08;;;;;;;;;0.00;0.00;;;;;13.13;65.72;102469.41;5060397;28;45328;-76
2021/10/08 02:11:33;;;;;;;;;0.00;0.00;;;;;13.15;65.83;102467.75;5055065;28;45461;-77
2021/10/08 02:13:59;;;;;;;;;1.75;0.00;;;;;13.01;65.77;102436.91;5041571;28;45549;-76
2021/10/08 02:16:25;;;;;;;;;0.00;0.00;;;;;12.89;65.69;102426.09;5041166;28;46611;-77
2021/10/08 02:18:52;;;;;;;;;1.00;1.00;;;;;12.95;65.45;102435.88;5039574;28;45377;-77
2021/10/08 02:21:19;;;;;;;;;1.00;0.00;;;;;13.05;66.17;102454.44;5040185;28;45401;-77
2021/10/08 02:23:45;;;;;;;;;1.00;1.00;;;;;12.98;65.54;102452.50;5042950;28;45584;-77
2021/10/08 02:26:11;;;;;;;;;0.00;0.00;;;;;12.89;65.76;102436.56;5043273;28;47789;-76
2021/10/08 02:28:37;;;;;;;;;0.00;0.00;;;;;12.80;66.14;102418.91;5043642;28;45744;-77
2021/10/08 02:31:02;;;;;;;;;0.00;0.00;;;;;13.07;65.54;102461.44;5043533;28;45640;-77
2021/10/08 02:33:28;;;;;;;;;0.00;0.00;;;;;12.77;66.06;102411.88;5044661;28;45408;-77
2021/10/08 02:35:53;;;;;;;;;0.00;0.00;;;;;12.90;65.86;102439.22;5044710;28;46106;-78
2021/10/08 02:38:19;;;;;;;;;0.00;0.00;;;;;12.83;66.33;102423.38;5044666;28;45320;-77
2021/10/08 02:40:45;;;;;;;;;0.00;0.00;;;;;12.83;66.05;102429.44;5044872;28;45370;-78
2021/10/08 02:43:11;;;;;;;;;1.00;1.00;;;;;13.00;66.58;102460.38;5045036;28;45628;-78
2021/10/08 02:45:37;;;;;;;;;0.00;0.00;;;;;12.93;66.11;102443.66;5044420;28;46603;-78
2021/10/08 02:48:03;;;;;;;;;0.00;0.00;;;;;12.73;66.11;102407.44;5043981;28;45445;-78
2021/10/08 02:50:29;;;;;;;;;0.00;0.00;;;;;12.90;66.47;102436.59;5044469;28;45430;-78
2021/10/08 02:52:54;;;;;;;;;0.25;0.00;;;;;13.03;65.80;102455.25;5044873;28;45414;-78
2021/10/08 02:55:20;;;;;;;;;0.75;0.75;;;;;12.96;66.33;102453.31;5044833;28;45683;-78
2021/10/08 02:57:45;;;;;;;;;0.50;0.50;;;;;12.74;65.92;102416.16;5063375;28;45318;-78
2021/10/08 03:00:11;;;;;;;;;0.00;0.00;;;;;12.92;65.93;102450.63;5064688;28;45472;-78
2021/10/08 03:02:38;;;;;;;;;0.00;0.00;;;;;12.93;66.30;102454.97;5063988;28;45418;-76
2021/10/08 03:05:04;;;;;;;;;1.25;1.25;;;;;12.80;66.27;102430.25;5061248;28;48424;-76
2021/10/08 03:07:30;;;;;;;;;0.00;0.00;;;;;12.74;66.31;102416.16;5062819;28;45987;-76
2021/10/08 03:09:55;;;;;;;;;0.00;0.00;;;;;12.88;66.38;102448.78;5064290;28;45307;-78
2021/10/08 03:12:20;;;;;;;;;0.00;0.00;;;;;12.69;65.98;102420.38;5052792;28;45592;-76
2021/10/08 03:14:47;;;;;;;;;0.50;0.00;;;;;12.64;66.56;102409.78;5044028;28;45358;-76
2021/10/08 03:17:13;;;;;;;;;2.00;0.00;;;;;12.57;66.15;102400.00;5043889;28;45504;-76
2021/10/08 03:19:38;;;;;;;;;0.00;0.00;;;;;12.85;66.50;102439.94;5043391;28;45524;-76
2021/10/08 03:22:04;;;;;;;;;0.25;0.25;;;;;12.80;66.03;102431.97;5044044;28;45539;-78
2021/10/08 03:24:29;;;;;;;;;0.00;0.00;;;;;12.85;66.35;102446.06;5043711;28;45743;-76
2021/10/08 03:26:55;;;;;;;;;0.00;0.00;;;;;12.74;66.31;102426.63;5042411;28;45410;-76
2021/10/08 03:29:20;;;;;;;;;1.00;1.00;;;;;12.79;65.97;102443.28;5060974;28;45485;-76
2021/10/08 03:31:46;;;;;;;;;0.00;0.00;;;;;12.40;66.16;102384.75;5064236;28;45425;-76
2021/10/08 03:34:11;;;;;;;;;1.00;0.00;;;;;12.58;66.22;102407.91;5078186;28;47206;-76
2021/10/08 03:36:48;;;;;;;;;0.00;0.00;;;;;12.85;66.13;102456.53;5063838;28;45429;-76
2021/10/08 03:39:19;;;;;;;;;0.75;0.00;;;;;12.70;66.65;102443.91;5063808;28;45351;-76
2021/10/08 03:41:45;;;;;;;;;0.00;0.00;;;;;12.66;66.12;102437.75;5064059;28;45476;-77
2021/10/08 03:44:11;;;;;;;;;0.00;0.00;;;;;12.54;66.23;102430.47;5063657;28;45358;-77
2021/10/08 03:46:44;;;;;;;;;1.00;0.75;;;;;12.55;66.40;102433.94;5064028;28;45531;-77
2021/10/08 03:51:36;;;;;;;;;0.75;0.75;;;;;12.70;66.26;102466.53;5063726;28;45406;-77
2021/10/08 03:54:03;;;;;;;;;1.00;0.00;;;;;12.68;66.64;102458.66;5063342;28;45421;-76
2021/10/08 03:56:29;;;;;;;;;0.75;0.00;;;;;12.45;66.65;102422.34;5063489;28;45315;-77
2021/10/08 03:58:56;;;;;;;;;0.00;0.00;;;;;12.64;66.83;102462.94;5063439;28;45377;-77
2021/10/08 04:01:22;;;;;;;;;0.25;0.25;;;;;12.51;66.85;102432.09;5062309;28;45500;-77
2021/10/08 04:03:47;;;;;;;;;1.50;1.50;;;;;12.60;66.63;102450.63;5061389;28;45483;-76
2021/10/08 04:06:14;;;;;;;;;0.50;0.25;;;;;12.63;66.66;102463.78;5061126;28;45492;-77
2021/10/08 04:08:39;;;;;;;;;0.50;0.50;;;;;12.58;66.73;102460.16;5061767;28;45331;-77
2021/10/08 04:11:05;;;;;;;;;0.50;0.00;;;;;12.56;66.55;102448.78;5060121;28;45343;-77
2021/10/08 04:13:30;;;;;;;;;1.00;1.00;;;;;12.47;66.45;102451.13;5041556;28;46899;-77
2021/10/08 04:15:56;;;;;;;;;3.00;1.00;;;;;12.51;66.89;102463.44;5040794;28;45610;-77
2021/10/08 04:18:21;;;;;;;;;0.75;0.75;;;;;12.55;66.94;102460.06;5042594;28;45368;-77
2021/10/08 04:20:47;;;;;;;;;0.00;0.00;;;;;12.40;66.79;102434.38;5043458;28;45505;-77
2021/10/08 04:23:12;;;;;;;;;0.00;0.00;;;;;12.48;66.62;102450.28;5042868;28;46449;-77
2021/10/08 04:25:38;;;;;;;;;2.00;2.00;;;;;12.59;66.93;102472.34;5041629;28;45244;-75
2021/10/08 04:28:03;;;;;;;;;0.00;0.00;;;;;12.45;66.54;102451.09;5047670;28;45496;-76
2021/10/08 04:30:29;;;;;;;;;0.50;0.50;;;;;12.23;67.02;102415.63;5061640;28;45543;-75
2021/10/08 04:32:54;;;;;;;;;0.00;0.00;;;;;12.49;66.86;102462.50;5059860;28;47935;-76
2021/10/08 04:35:20;;;;;;;;;1.00;1.00;;;;;12.46;66.97;102451.97;5060800;28;45284;-77
2021/10/08 04:37:45;;;;;;;;;1.25;1.25;;;;;12.46;67.13;102450.25;5062378;28;45362;-78
2021/10/08 04:40:11;;;;;;;;;1.75;1.00;;;;;12.41;66.69;102442.25;5062188;28;45442;-76
2021/10/08 04:42:36;;;;;;;;;1.75;1.75;;;;;12.42;67.06;102437.94;5059769;28;47259;-77
2021/10/08 04:45:03;;;;;;;;;0.00;0.00;;;;;12.47;67.16;102452.00;5061107;28;45986;-77
2021/10/08 04:47:29;;;;;;;;;1.50;1.00;;;;;12.58;66.93;102472.31;5061365;28;45346;-77
2021/10/08 04:49:54;;;;;;;;;1.75;0.50;;;;;12.48;67.19;102473.78;5061202;28;45608;-77
2021/10/08 04:52:19;;;;;;;;;0.50;0.50;;;;;12.38;67.15;102457.84;5058786;28;47165;-77
2021/10/08 04:54:45;;;;;;;;;0.25;0.25;;;;;12.39;67.18;102458.75;5060768;28;45373;-77
2021/10/08 04:57:10;;;;;;;;;1.00;1.00;;;;;12.46;67.29;102476.34;5045951;28;45375;-77
2021/10/08 04:59:36;;;;;;;;;0.25;0.25;;;;;12.31;67.11;102460.25;5042692;28;45608;-78
2021/10/08 05:02:01;;;;;;;;;1.75;1.75;;;;;12.22;67.41;102445.22;5054251;28;45539;-79
2021/10/08 05:04:27;;;;;;;;;0.00;0.00;;;;;12.15;67.42;102445.03;5041982;28;45398;-78
2021/10/08 05:06:52;;;;;;;;;1.25;0.50;;;;;12.36;67.29;102480.44;5042091;28;45433;-78
2021/10/08 05:09:18;;;;;;;;;0.00;0.00;;;;;12.22;67.45;102453.03;5047315;28;45346;-78
2021/10/08 05:11:43;;;;;;;;;0.00;0.00;;;;;12.18;67.77;102453.75;5052333;28;46160;-79
2021/10/08 05:14:10;;;;;;;;;1.00;1.00;;;;;12.18;67.72;102445.94;5051747;28;45463;-78
2021/10/08 05:16:37;;;;;;;;;1.50;1.00;;;;;12.22;67.53;102459.13;5051744;28;45818;-78
2021/10/08 05:19:03;;;;;;;;;1.00;0.25;;;;;12.37;67.69;102481.34;5065361;28;45629;-78
2021/10/08 05:21:28;;;;;;;;;0.75;0.75;;;;;12.28;67.68;102472.38;5051505;28;45492;-78
2021/10/08 05:23:53;;;;;;;;;1.00;1.00;;;;;11.94;67.46;102416.50;5051476;28;45500;-78
2021/10/08 05:26:19;;;;;;;;;2.00;2.00;;;;;11.86;67.75;102412.81;5050174;28;45562;-78
2021/10/08 05:28:44;;;;;;;;;1.00;1.00;;;;;12.12;67.86;102465.81;5052535;28;45397;-76
2021/10/08 05:31:09;;;;;;;;;0.00;0.00;;;;;12.16;68.12;102477.25;5049254;28;47112;-77
2021/10/08 05:33:35;;;;;;;;;0.25;0.00;;;;;12.06;67.55;102462.13;5050203;28;45403;-77
2021/10/08 05:36:00;;;;;;;;;0.00;0.00;;;;;12.06;67.69;102462.13;5049425;28;45403;-77
2021/10/08 05:38:26;;;;;;;;;0.50;0.50;;;;;12.21;67.99;102486.09;5041556;28;45326;-77
2021/10/08 05:40:52;;;;;;;;;0.00;0.00;;;;;11.98;68.24;102452.28;5040720;28;45382;-78
2021/10/08 05:43:19;;;;;;;;;1.50;1.00;;;;;12.16;67.89;102487.69;5046216;28;45440;-80
2021/10/08 05:45:44;;;;;;;;;1.00;1.00;;;;;12.15;67.79;102486.78;5050499;28;45445;-78
2021/10/08 05:48:10;;;;;;;;;3.00;0.00;;;;;12.11;68.29;102490.16;5050119;28;45394;-79
2021/10/08 05:50:35;;;;;;;;;0.50;0.00;;;;;12.09;68.09;102498.75;5058762;28;45679;-79
2021/10/08 05:53:01;;;;;;;;;1.25;1.25;;;;;11.92;67.90;102467.78;5060231;28;45703;-78
2021/10/08 05:55:26;;;;;;;;;2.50;0.75;;;;;12.03;68.19;102483.75;5054621;28;45485;-78
2021/10/08 05:57:52;;;;;;;;;1.50;0.75;;;;;11.77;68.06;102436.88;5060466;28;45271;-85
2021/10/08 06:00:17;;;;;;;;;1.75;1.75;;;;;11.80;68.25;102455.25;5056379;28;48279;-80
2021/10/08 06:02:43;;;;;;;;;2.00;0.75;;;;;12.09;68.32;102499.66;5040326;28;45555;-80
2021/10/08 06:05:08;;;;;;;;;1.25;1.25;;;;;12.03;68.47;102483.75;5040466;28;45386;-79
2021/10/08 06:07:33;;;;;;;;;0.00;0.00;;;;;12.07;68.22;102492.63;5040715;28;45409;-84
2021/10/08 06:09:59;;;;;;;;;2.00;1.25;;;;;11.90;68.26;102491.22;5057902;28;47416;-78
2021/10/08 06:12:24;;;;;;;;;1.50;1.00;;;;;11.76;68.57;102461.22;5052668;28;45423;-81
2021/10/08 06:14:50;;;;;;;;;0.00;0.00;;;;;11.95;68.69;102501.81;5044747;28;45568;-78
2021/10/08 06:17:15;;;;;;;;;1.25;1.25;;;;;11.97;68.45;102502.72;5057338;28;45564;-78
2021/10/08 06:19:42;;;;;;;;;1.00;1.00;;;;;12.00;68.61;102510.66;5059073;28;48188;-78
2021/10/08 06:22:08;;;;;;;;;2.50;2.50;;;;;11.95;68.33;102504.44;5060813;28;45418;-80
2021/10/08 06:24:34;;;;;;;;;0.00;0.00;;;;;11.91;68.74;102508.66;5044269;28;45196;-77
2021/10/08 06:26:59;;;;;;;;;0.75;0.75;;;;;11.61;68.42;102459.00;5039350;28;45379;-83
2021/10/08 06:29:25;;;;;;;;;0.75;0.25;;;;;11.66;68.37;102479.19;5041424;28;46972;-79
2021/10/08 06:31:50;;;;;;;;;2.75;0.75;;;;;11.70;68.52;102495.78;5042482;28;45315;-79
2021/10/08 06:34:16;;;;;;;;;1.75;1.75;;;;;11.66;68.54;102479.19;5039944;28;45368;-80
2021/10/08 06:36:41;;;;;;;;;0.00;0.00;;;;;11.94;68.79;102513.06;5041098;28;45285;-80
2021/10/08 06:39:07;;;;;;;;;0.75;0.75;;;;;11.97;68.45;102521.00;5044950;28;47499;-79
2021/10/08 06:41:32;;;;;;;;;1.75;0.00;;;;;11.63;68.35;102460.81;5041413;28;45193;-77
2021/10/08 06:43:58;;;;;;;;;0.50;0.50;;;;;11.93;68.25;102505.19;5051467;28;45402;-79
2021/10/08 06:46:23;;;;;;;;;1.75;0.75;;;;;11.99;68.37;102505.41;5047667;28;45460;-79
2021/10/08 06:48:49;;;;;;;;;0.75;0.75;;;;;12.00;68.68;102507.16;5059705;28;46337;-82
2021/10/08 06:51:14;;;;;;;;;0.75;0.75;;;;;11.91;68.32;102481.66;5042412;28;46327;-83
2021/10/08 06:53:40;;;;;;;;;2.50;2.00;;;;;11.82;68.11;102474.44;5044458;28;45471;-81
2021/10/08 06:56:05;;;;;;;;;0.00;0.00;;;;;12.16;68.04;102530.31;5050724;28;45303;-80
2021/10/08 06:58:31;;;;;;;;;1.00;1.00;;;;;12.18;68.28;102537.31;5066007;28;47296;-81
2021/10/08 07:00:56;;;;;;;;;0.75;0.00;;;;;12.10;68.02;102524.91;5042340;28;45362;-80
2021/10/08 07:03:21;;;;;;;;;0.00;0.00;;;;;12.03;67.90;102510.75;5039814;28;45878;-79
2021/10/08 07:05:47;;;;;;;;;1.50;0.00;;;;;11.86;68.02;102484.16;5047500;28;45600;-77
2021/10/08 07:08:13;;;;;;;;;0.50;0.00;;;;;11.95;68.13;102513.97;5049091;28;45510;-79
2021/10/08 07:10:39;;;;;;;;;0.25;0.25;;;;;11.97;68.06;102528.84;5051755;28;45536;-79
2021/10/08 07:13:05;;;;;;;;;0.25;0.25;;;;;12.14;68.35;102550.31;5049950;28;45910;-78
2021/10/08 07:15:31;;;;;;;;;2.25;0.00;;;;;12.21;68.21;102547.84;5054710;28;45410;-78
2021/10/08 07:17:56;;;;;;;;;1.25;0.75;;;;;12.08;67.79;102518.78;5055063;28;45987;-82
2021/10/08 07:20:25;;;;;;;;;1.00;1.00;;;;;12.12;68.13;102532.78;5049291;28;45382;-79
2021/10/08 07:22:51;;;;;;;;;1.25;0.00;;;;;12.29;67.73;102554.22;5059632;28;45462;-78
2021/10/08 07:25:17;;;;;;;;;0.25;0.25;;;;;11.86;67.66;102478.94;5044291;28;45611;-79
2021/10/08 07:27:45;;;;;;;;;0.50;0.00;;;;;12.18;68.07;102522.53;5056652;28;46666;-86
2021/10/08 07:30:11;;;;;;;;;0.25;0.25;;;;;12.21;67.83;102506.06;5056977;28;45611;-81
2021/10/08 07:32:37;;;;;;;;;1.75;1.25;;;;;12.46;67.72;102548.63;5051094;28;45406;-80
2021/10/08 07:35:04;;;;;;;;;1.75;1.75;;;;;12.26;67.59;102509.72;5056598;28;45383;-80
2021/10/08 07:37:29;;;;;;;;;4.25;0.25;;;;;12.51;67.48;102560.97;5054282;28;48707;-81
2021/10/08 07:39:56;;;;;;;;;0.00;0.00;;;;;12.26;67.46;102494.97;5060733;28;45805;-82
2021/10/08 07:42:22;;;;;;;;;2.00;1.00;;;;;12.63;67.80;102544.78;5062489;28;45311;-79
2021/10/08 07:44:48;;;;;;;;;3.75;2.00;;;;;12.59;67.36;102539.41;5060308;28;45463;-79
2021/10/08 07:47:14;;;;;;;;;2.50;0.00;;;;;12.72;67.11;102558.94;5060246;28;48027;-80
2021/10/08 07:49:40;;;;;;;;;1.25;1.25;;;;;12.67;67.05;102541.41;5045163;28;45422;-82
2021/10/08 07:52:05;;;;;;;;;1.25;0.00;;;;;12.72;66.84;102554.63;5057158;28;45449;-80
2021/10/08 07:54:30;;;;;;;;;0.75;0.75;;;;;12.59;66.82;102515.91;5045785;28;45485;-81
2021/10/08 07:56:56;;;;;;;;;1.00;1.00;;;;;12.60;66.92;102531.63;5043936;28;48438;-82
2021/10/08 07:59:21;;;;;;;;;2.00;0.50;;;;;12.78;66.91;102546.91;5053861;28;45470;-78
2021/10/08 08:01:47;;;;;;;;;0.00;0.00;;;;;12.56;66.80;102500.13;5053190;28;45982;-78
2021/10/08 08:04:12;;;;;;;;;0.25;0.25;;;;;12.70;66.72;102519.69;5049051;28;45663;-84
2021/10/08 08:06:38;;;;;;;;;0.50;0.50;;;;;12.71;66.60;102521.47;5063891;28;47440;-78
2021/10/08 08:09:03;;;;;;;;;2.00;2.00;;;;;12.77;66.69;102524.25;5056781;28;45441;-79
2021/10/08 08:11:29;;;;;;;;;0.25;0.25;;;;;12.72;66.54;102506.69;5052550;28;45572;-79
2021/10/08 08:13:55;;;;;;;;;1.00;1.00;;;;;12.56;66.72;102481.84;5053071;28;45546;-79
2021/10/08 08:16:21;;;;;;;;;1.25;1.00;;;;;12.91;66.68;102532.50;5047503;28;48176;-78
2021/10/08 08:18:47;;;;;;;;;1.75;0.00;;;;;12.95;66.25;102533.44;5052035;28;45411;-80
2021/10/08 08:21:12;;;;;;;;;2.75;1.00;;;;;12.84;66.31;102509.66;5048192;28;45579;-81
2021/10/08 08:23:37;;;;;;;;;0.50;0.50;;;;;12.84;66.57;102473.06;5056842;28;45486;-82
2021/10/08 08:26:03;;;;;;;;;1.00;1.00;;;;;13.23;66.39;102526.34;5044827;28;47412;-78
2021/10/08 08:28:28;;;;;;;;;0.00;0.00;;;;;13.39;65.94;102530.25;5054502;28;45521;-78
2021/10/08 08:30:55;;;;;;;;;1.00;0.50;;;;;13.61;65.42;102538.69;5061306;28;45370;-78
2021/10/08 08:33:20;;;;;;;;;0.00;0.00;;;;;13.51;65.36;102507.91;5049779;28;45497;-79
2021/10/08 08:35:45;;;;;;;;;1.00;1.00;;;;;13.63;64.65;102516.03;5041325;28;45634;-78
2021/10/08 08:38:11;;;;;;;;;2.00;0.00;;;;;13.71;65.09;102534.56;5055896;28;45740;-79
2021/10/08 08:40:36;;;;;;;;;0.00;0.00;;;;;13.68;64.83;102527.53;5057177;28;45813;-84
2021/10/08 08:43:02;;;;;;;;;0.25;0.25;;;;;13.68;64.61;102524.00;5054596;28;45636;-80
2021/10/08 08:45:30;;;;;;;;;1.50;1.50;;;;;13.92;64.93;102556.84;5052099;28;46247;-78
2021/10/08 08:48:08;;;;;;;;;2.25;1.00;;;;;13.98;64.71;102549.16;5041337;28;45515;-79
2021/10/08 08:50:36;;;;;;;;;1.00;1.00;;;;;14.00;64.44;102533.47;5052802;28;45481;-79
2021/10/08 08:53:02;;;;;;;;;1.00;1.00;;;;;14.24;64.19;102542.75;5059534;28;45380;-80
2021/10/08 08:55:27;;;;;;;;;1.00;0.00;;;;;13.80;64.21;102465.84;5050409;28;46699;-78
2021/10/08 08:57:53;;;;;;;;;1.00;1.00;;;;;14.11;63.23;102508.41;5052890;28;45397;-78
2021/10/08 09:00:20;;;;;;;;;2.00;0.00;;;;;14.31;63.27;102518.47;5047774;28;45646;-80
2021/10/08 09:02:59;;;;;;;;;0.00;0.00;;;;;14.47;63.28;102543.25;5052611;28;45521;-81
2021/10/08 09:05:29;;;;;;;;;1.00;1.00;;;;;14.50;63.50;102514.50;5060252;28;45830;-82
2021/10/08 09:07:58;;;;;;;;;1.00;1.00;;;;;14.35;62.92;102454.78;5051056;28;45442;-82
2021/10/08 09:10:28;;;;;;;;;1.00;1.00;;;;;14.94;62.41;102525.84;5055236;28;45393;-80
2021/10/08 09:12:55;;;;;;;;;0.00;0.00;;;;;15.02;62.38;102523.38;5051866;28;45513;-81
2021/10/08 09:15:21;;;;;;;;;1.50;0.25;;;;;15.21;62.25;102527.22;5038358;28;47244;-80
2021/10/08 09:17:47;;;;;;;;;0.00;0.00;;;;;15.29;61.55;102530.84;5042233;28;45953;-80
2021/10/08 09:20:18;;;;;;;;;0.00;0.00;;;;;15.29;61.42;102535.22;5055227;28;45417;-81
2021/10/08 09:22:46;;;;;;;;;0.25;0.25;;;;;15.26;61.44;102533.44;5044480;28;45565;-85
2021/10/08 09:25:12;;;;;;;;;0.50;0.00;;;;;15.32;61.44;102523.03;5048161;28;45449;-84
2021/10/08 09:27:39;;;;;;;;;0.00;0.00;;;;;15.15;61.09;102479.88;5053373;28;45466;-78
2021/10/08 09:30:07;;;;;;;;;0.00;0.00;;;;;15.41;60.51;102496.06;5055698;28;45462;-77
2021/10/08 09:32:55;;;;;;;;;0.00;0.00;;;;;15.57;60.74;102502.47;5039600;28;45743;-79
2021/10/08 09:35:23;;;;;;;;;0.25;0.00;;;;;15.55;60.97;102458.66;5058201;28;47166;-79
2021/10/08 09:38:06;;;;;;;;;0.00;0.00;;;;;15.64;60.31;102478.91;5049808;28;45362;-80
2021/10/08 09:40:51;;;;;;;;;1.75;1.00;;;;;15.73;59.55;102505.31;5042283;28;45883;-80
2021/10/08 09:43:22;;;;;;;;;0.00;0.00;;;;;15.90;60.05;102520.47;5055146;28;45799;-84
2021/10/08 09:45:51;;;;;;;;;0.00;0.00;;;;;16.09;60.06;102517.25;5054146;28;45459;-84
2021/10/08 09:48:18;;;;;;;;;1.00;0.00;;;;;15.92;59.42;102474.06;5060549;28;45484;-84
2021/10/08 09:51:01;;;;;;;;;0.00;0.00;;;;;16.20;59.06;102482.34;5054351;28;45311;-85
2021/10/08 09:53:27;;;;;;;;;0.00;0.00;;;;;16.41;59.09;102518.53;5057336;28;46226;-80
2021/10/08 09:55:53;;;;;;;;;0.00;0.00;;;;;16.14;58.16;102467.41;5059480;28;45470;-85
2021/10/08 09:58:22;;;;;;;;;0.00;0.00;;;;;16.53;57.56;102509.03;5042674;28;45307;-89
2021/10/08 10:01:00;;;;;;;;;0.00;0.00;;;;;16.41;57.28;102468.63;5054405;28;45340;-85
2021/10/08 10:03:26;;;;;;;;;0.00;0.00;;;;;16.38;56.53;102458.06;5047349;28;45450;-83
2021/10/08 10:05:52;;;;;;;;;0.00;0.00;;;;;16.57;56.57;102474.06;5061551;28;47286;-83
2021/10/08 10:08:17;;;;;;;;;2.00;0.50;;;;;16.51;56.62;102434.56;5055088;28;45387;-82
2021/10/08 10:10:44;;;;;;;;;0.00;0.00;;;;;16.91;56.34;102495.44;5050183;28;45451;-84
2021/10/08 10:13:12;;;;;;;;;0.00;0.00;;;;;16.99;56.22;102495.53;5053758;28;45496;-81
2021/10/08 10:15:40;;;;;;;;;0.25;0.00;;;;;17.06;55.30;102485.94;5054336;28;45573;-82
2021/10/08 10:18:13;;;;;;;;;0.50;0.50;;;;;17.03;55.93;102473.63;5046650;28;45572;-86
2021/10/08 10:20:44;;;;;;;;;0.00;0.00;;;;;17.07;55.80;102478.09;5055853;28;45390;-84
2021/10/08 10:23:10;;;;;;;;;0.00;0.00;;;;;16.92;55.80;102457.75;5051261;28;45263;-84
2021/10/08 10:25:36;;;;;;;;;1.00;0.00;;;;;17.19;55.24;102484.34;5056040;28;47312;-83
2021/10/08 10:28:04;;;;;;;;;0.00;0.00;;;;;16.91;55.63;102427.03;5045302;28;45299;-86
2021/10/08 10:30:29;;;;;;;;;0.50;0.50;;;;;16.97;54.76;102436.78;5055535;28;45637;-85
2021/10/08 10:32:55;;;;;;;;;1.00;1.00;;;;;16.87;54.78;102406.00;5044834;28;45497;-85
2021/10/08 10:35:51;;;;;;;;;0.00;0.00;;;;;17.20;54.74;102467.66;5054048;28;47248;-82
2021/10/08 10:38:40;;;;;;;;;1.00;0.00;;;;;17.28;53.77;102486.16;5048198;28;45773;-81
2021/10/08 10:41:08;;;;;;;;;1.00;0.00;;;;;17.30;54.49;102482.69;5056213;28;45400;-79
2021/10/08 10:43:46;;;;;;;;;0.00;0.00;;;;;17.30;53.08;102477.41;5054327;28;45545;-81
2021/10/08 10:51:55;;;;;;;;;0.75;0.00;;;;;17.43;53.32;102477.53;5077790;28;44844;-79
2021/10/08 10:54:37;;;;;;;;;0.00;0.00;;;;;17.45;53.57;102471.38;5066284;28;45499;-77
2021/10/08 10:57:32;;;;;;;;;0.00;0.00;;;;;17.49;53.90;102472.31;5067896;28;45667;-77
2021/10/08 11:00:36;;;;;;;;;0.00;0.00;;;;;17.48;53.22;102468.78;5087105;28;45462;-78
2021/10/08 11:03:14;;;;;;;;;0.25;0.00;;;;;17.30;53.51;102443.19;5062734;28;44851;-78
2021/10/08 11:06:00;;;;;;;;;0.00;0.00;;;;;17.22;53.57;102427.34;5061681;28;45557;-79
2021/10/08 11:08:26;;;;;;;;;1.75;0.00;;;;;17.27;53.73;102447.56;5051553;28;46872;-78
2021/10/08 11:11:00;;;;;;;;;0.00;0.00;;;;;17.51;53.56;102467.03;5051578;28;45483;-79
2021/10/08 11:13:34;;;;;;;;;0.00;0.00;;;;;17.48;53.33;102457.34;5073221;28;45376;-77
2021/10/08 11:16:05;;;;;;;;;0.00;0.00;;;;;17.51;52.66;102459.13;5057012;28;45364;-76
2021/10/08 11:18:41;;;;;;;;;0.00;0.00;;;;;16.92;52.80;102362.19;5050842;28;45618;-77
2021/10/08 11:21:12;;;;;;;;;0.00;0.00;;;;;17.21;52.41;102403.63;5049370;28;46041;-77
2021/10/08 11:23:39;;;;;;;;;0.00;0.00;;;;;17.44;52.72;102430.16;5052970;28;45749;-77
2021/10/08 11:26:10;;;;;;;;;0.00;0.00;;;;;17.68;52.67;102456.63;5051837;28;45300;-79
2021/10/08 11:28:41;;;;;;;;;1.00;0.00;;;;;17.17;52.68;102367.66;5056160;28;45684;-81
2021/10/08 11:31:10;;;;;;;;;0.00;0.00;;;;;17.74;53.00;102451.41;5060041;28;45472;-80
2021/10/08 11:33:43;;;;;;;;;0.00;0.00;;;;;17.78;52.76;102455.81;5053577;28;45385;-80